createdAt,value
2023-05-13T00:00:39.339Z,101082.28
2023-05-13T00:03:05.934Z,101082.44
2023-05-13T00:05:32.492Z,101082.53
2023-05-13T00:08:02.111Z,101076.56
2023-05-13T00:10:28.711Z,101078.34
2023-05-13T00:12:55.131Z,101067.78
2023-05-13T00:15:21.714Z,101074.78
2023-05-13T00:17:48.169Z,101071.28
2023-05-13T00:20:14.710Z,101073.00
2023-05-13T00:22:41.241Z,101071.28
2023-05-13T00:25:08.258Z,101079.25
2023-05-13T00:27:35.299Z,101074.91
2023-05-13T00:30:01.797Z,101077.44
2023-05-13T00:32:28.411Z,101079.06
2023-05-13T00:34:54.931Z,101074.69
2023-05-13T00:37:21.408Z,101072.06
2023-05-13T00:39:48.412Z,101069.38
2023-05-13T00:42:15.522Z,101077.31
2023-05-13T00:44:42.258Z,101074.75
2023-05-13T00:47:11.252Z,101080.84
2023-05-13T00:49:37.765Z,101066.88
2023-05-13T00:52:04.775Z,101078.22
2023-05-13T00:54:31.302Z,101076.50
2023-05-13T00:56:58.356Z,101072.09
2023-05-13T00:59:26.925Z,101076.47
2023-05-13T01:02:02.442Z,101071.28
2023-05-13T01:04:59.881Z,101069.53
2023-05-13T01:07:34.716Z,101068.72
2023-05-13T01:10:09.066Z,101071.28
2023-05-13T01:12:43.559Z,101066.91
2023-05-13T01:15:16.972Z,101073.88
2023-05-13T01:17:53.892Z,101067.75
2023-05-13T01:20:22.955Z,101073.81
2023-05-13T01:22:49.698Z,101072.09
2023-05-13T01:25:16.168Z,101077.28
2023-05-13T01:27:42.735Z,101076.50
2023-05-13T01:30:09.925Z,101069.53
2023-05-13T01:32:38.023Z,101079.03
2023-05-13T01:35:06.036Z,101080.72
2023-05-13T01:37:32.957Z,101078.91
2023-05-13T01:39:59.612Z,101077.13
2023-05-13T01:42:29.633Z,101077.19
2023-05-13T01:44:56.222Z,101077.19
2023-05-13T01:47:22.665Z,101080.59
2023-05-13T01:49:49.205Z,101085.88
2023-05-13T01:52:15.606Z,101089.38
2023-05-13T01:54:42.096Z,101085.94
2023-05-13T01:57:08.636Z,101088.63
2023-05-13T01:59:35.113Z,101080.75
2023-05-13T02:02:01.817Z,101085.94
2023-05-13T02:04:28.443Z,101082.44
2023-05-13T02:06:54.867Z,101073.72
2023-05-13T02:09:21.361Z,101080.66
2023-05-13T02:11:47.963Z,101078.03
2023-05-13T02:14:14.537Z,101085.00
2023-05-13T02:16:41.014Z,101079.75
2023-05-13T02:19:07.821Z,101077.94
2023-05-13T02:21:34.333Z,101080.56
2023-05-13T02:24:00.988Z,101072.72
2023-05-13T02:26:27.672Z,101073.59
2023-05-13T02:28:54.108Z,101081.47
2023-05-13T02:31:20.727Z,101075.34
2023-05-13T02:33:47.676Z,101074.47
2023-05-13T02:36:14.098Z,101077.94
2023-05-13T02:38:40.582Z,101066.59
2023-05-13T02:41:07.129Z,101070.88
2023-05-13T02:43:34.089Z,101069.03
2023-05-13T02:46:00.812Z,101071.56
2023-05-13T02:48:27.340Z,101065.44
2023-05-13T02:50:53.890Z,101071.53
2023-05-13T02:53:20.384Z,101061.94
2023-05-13T02:55:46.894Z,101058.50
2023-05-13T02:58:13.474Z,101064.59
2023-05-13T03:00:39.892Z,101061.09
2023-05-13T03:03:06.496Z,101057.59
2023-05-13T03:05:33.086Z,101058.50
2023-05-13T03:07:59.507Z,101061.13
2023-05-13T03:10:26.033Z,101057.59
2023-05-13T03:12:52.538Z,101054.97
2023-05-13T03:15:19.195Z,101067.22
2023-05-13T03:17:45.740Z,101055.00
2023-05-13T03:20:12.537Z,101065.50
2023-05-13T03:22:39.141Z,101062.97
2023-05-13T03:25:07.093Z,101064.72
2023-05-13T03:27:33.675Z,101065.72
2023-05-13T03:30:00.150Z,101066.66
2023-05-13T03:32:30.555Z,101064.97
2023-05-13T03:34:58.067Z,101064.13
2023-05-13T03:37:24.695Z,101072.03
2023-05-13T03:39:51.522Z,101063.44
2023-05-13T03:42:18.467Z,101073.91
2023-05-13T03:44:44.882Z,101072.22
2023-05-13T03:47:11.365Z,101074.03
2023-05-13T03:49:37.836Z,101071.41
2023-05-13T03:52:04.506Z,101075.75
2023-05-13T03:54:30.907Z,101081.03
2023-05-13T03:56:57.352Z,101083.72
2023-05-13T03:59:24.209Z,101075.00
2023-05-13T04:01:51.045Z,101076.84
2023-05-13T04:04:17.496Z,101087.38
2023-05-13T04:06:43.907Z,101090.91
2023-05-13T04:09:10.485Z,101089.16
2023-05-13T04:11:36.922Z,101094.41
2023-05-13T04:14:03.390Z,101097.00
2023-05-13T04:16:29.910Z,101096.09
2023-05-13T04:18:56.413Z,101097.00
2023-05-13T04:21:22.843Z,101104.94
2023-05-13T04:23:49.344Z,101104.03
2023-05-13T04:26:15.776Z,101103.94
2023-05-13T04:28:42.250Z,101090.78
2023-05-13T04:31:08.774Z,101102.00
2023-05-13T04:33:35.315Z,101093.19
2023-05-13T04:36:01.835Z,101101.00
2023-05-13T04:38:28.281Z,101103.56
2023-05-13T04:40:54.764Z,101107.00
2023-05-13T04:43:21.270Z,101108.72
2023-05-13T04:45:49.129Z,101102.53
2023-05-13T04:48:16.287Z,101104.38
2023-05-13T04:50:46.813Z,101109.59
2023-05-13T04:53:14.694Z,101107.81
2023-05-13T04:55:41.312Z,101108.53
2023-05-13T04:58:07.763Z,101112.81
2023-05-13T05:00:34.200Z,101114.47
2023-05-13T05:03:00.695Z,101110.94
2023-05-13T05:05:27.116Z,101124.84
2023-05-13T05:07:53.586Z,101123.06
2023-05-13T05:10:20.372Z,101128.28
2023-05-13T05:12:47.012Z,101123.78
2023-05-13T05:15:15.842Z,101125.44
2023-05-13T05:17:43.651Z,101119.25
2023-05-13T05:20:11.180Z,101128.75
2023-05-13T05:22:38.350Z,101130.44
2023-05-13T05:25:05.313Z,101121.63
2023-05-13T05:27:31.750Z,101121.56
2023-05-13T05:29:58.289Z,101124.09
2023-05-13T05:32:24.933Z,101123.97
2023-05-13T05:34:51.545Z,101119.56
2023-05-13T05:37:18.043Z,101123.00
2023-05-13T05:39:44.480Z,101127.34
2023-05-13T05:42:11.471Z,101128.13
2023-05-13T05:44:37.896Z,101126.25
2023-05-13T05:47:04.499Z,101127.94
2023-05-13T05:49:30.902Z,101126.06
2023-05-13T05:51:57.408Z,101131.22
2023-05-13T05:54:23.887Z,101134.63
2023-05-13T05:56:50.386Z,101136.28
2023-05-13T05:59:16.803Z,101137.06
2023-05-13T06:01:43.280Z,101142.34
2023-05-13T06:04:09.921Z,101138.00
2023-05-13T06:06:36.632Z,101144.09
2023-05-13T06:09:03.166Z,101148.41
2023-05-13T06:11:29.596Z,101160.59
2023-05-13T06:13:57.523Z,101161.41
2023-05-13T06:16:24.245Z,101164.03
2023-05-13T06:18:51.049Z,101158.78
2023-05-13T06:21:17.583Z,101160.50
2023-05-13T06:23:44.057Z,101162.16
2023-05-13T06:26:10.592Z,101157.66
2023-05-13T06:28:37.069Z,101160.19
2023-05-13T06:31:03.635Z,101164.47
2023-05-13T06:33:30.230Z,101166.00
2023-05-13T06:35:56.802Z,101156.97
2023-05-13T06:38:23.239Z,101159.53
2023-05-13T06:40:49.656Z,101162.94
2023-05-13T06:43:16.514Z,101156.66
2023-05-13T06:45:43.086Z,101173.88
2023-05-13T06:48:09.619Z,101171.91
2023-05-13T06:50:36.194Z,101164.56
2023-05-13T06:53:02.754Z,101168.66
2023-05-13T06:55:29.319Z,101173.06
2023-05-13T06:57:55.780Z,101176.44
2023-05-13T07:00:22.740Z,101173.75
2023-05-13T07:02:49.358Z,101170.25
2023-05-13T07:05:15.835Z,101170.41
2023-05-13T07:07:43.316Z,101175.56
2023-05-13T07:10:10.138Z,101170.13
2023-05-13T07:12:36.677Z,101171.94
2023-05-13T07:15:03.267Z,101169.56
2023-05-13T07:17:31.302Z,101170.63
2023-05-13T07:19:57.876Z,101169.13
2023-05-13T07:22:24.496Z,101164.88
2023-05-13T07:24:51.033Z,101165.78
2023-05-13T07:27:17.525Z,101165.81
2023-05-13T07:29:43.999Z,101171.09
2023-05-13T07:32:10.643Z,101164.91
2023-05-13T07:34:37.331Z,101175.31
2023-05-13T07:37:04.588Z,101177.53
2023-05-13T07:39:31.181Z,101190.59
2023-05-13T07:41:57.594Z,101196.69
2023-05-13T07:44:24.224Z,101191.38
2023-05-13T07:46:53.464Z,101198.31
2023-05-13T07:49:21.205Z,101199.91
2023-05-13T07:51:47.722Z,101199.03
2023-05-13T07:54:14.183Z,101198.97
2023-05-13T07:56:40.643Z,101198.97
2023-05-13T07:59:07.074Z,101197.28
2023-05-13T08:01:33.566Z,101190.09
2023-05-13T08:04:00.585Z,101184.00
2023-05-13T08:06:28.318Z,101192.66
2023-05-13T08:08:54.810Z,101186.41
2023-05-13T08:11:21.829Z,101176.38
2023-05-13T08:13:48.241Z,101190.25
2023-05-13T08:16:14.690Z,101190.25
2023-05-13T08:18:41.206Z,101185.81
2023-05-13T08:21:07.692Z,101196.34
2023-05-13T08:23:44.811Z,101183.84
2023-05-13T08:26:13.177Z,101193.28
2023-05-13T08:28:39.666Z,101184.38
2023-05-13T08:31:06.327Z,101186.09
2023-05-13T08:33:32.924Z,101187.69
2023-05-13T08:36:00.881Z,101188.25
2023-05-13T08:38:27.335Z,101197.13
2023-05-13T08:40:53.951Z,101195.41
2023-05-13T08:43:23.686Z,101192.00
2023-05-13T08:45:52.232Z,101188.41
2023-05-13T08:48:19.854Z,101188.13
2023-05-13T08:50:47.085Z,101181.75
2023-05-13T08:53:13.759Z,101184.59
2023-05-13T08:55:40.494Z,101185.22
2023-05-13T08:58:07.435Z,101184.38
2023-05-13T09:00:37.297Z,101188.53
2023-05-13T09:03:04.189Z,101179.69
2023-05-13T09:05:31.852Z,101190.81
2023-05-13T09:07:58.773Z,101185.97
2023-05-13T09:10:25.339Z,101180.53
2023-05-13T09:12:55.310Z,101180.69
2023-05-13T09:15:24.594Z,101187.75
2023-05-13T09:17:54.680Z,101186.88
2023-05-13T09:20:22.318Z,101181.66
2023-05-13T09:22:51.899Z,101171.63
2023-05-13T09:25:20.362Z,101181.31
2023-05-13T09:27:49.544Z,101175.19
2023-05-13T09:30:16.192Z,101178.75
2023-05-13T09:32:43.223Z,101174.06
2023-05-13T09:35:11.817Z,101167.44
2023-05-13T09:37:38.477Z,101162.31
2023-05-13T09:40:06.120Z,101171.69
2023-05-13T09:42:33.104Z,101163.28
2023-05-13T09:45:05.240Z,101160.88
2023-05-13T09:47:31.769Z,101162.66
2023-05-13T09:49:58.377Z,101156.56
2023-05-13T09:52:24.847Z,101153.16
2023-05-13T09:54:51.333Z,101154.72
2023-05-13T09:57:17.783Z,101158.06
2023-05-13T09:59:44.191Z,101154.72
2023-05-13T10:02:13.009Z,101152.56
2023-05-13T10:04:40.082Z,101148.50
2023-05-13T10:07:08.600Z,101150.28
2023-05-13T10:09:39.434Z,101137.94
2023-05-13T10:12:07.948Z,101141.41
2023-05-13T10:14:36.798Z,101140.88
2023-05-13T10:17:03.365Z,101133.50
2023-05-13T10:19:29.835Z,101122.06
2023-05-13T10:21:57.547Z,101120.13
2023-05-13T10:24:24.542Z,101124.47
2023-05-13T10:26:52.780Z,101123.09
2023-05-13T10:29:19.388Z,101118.47
2023-05-13T10:31:47.702Z,101110.50
2023-05-13T10:34:14.298Z,101118.38
2023-05-13T10:37:10.195Z,101118.38
2023-05-13T10:40:14.339Z,101112.97
2023-05-13T10:42:43.077Z,101112.28
2023-05-13T10:45:10.510Z,101111.06
2023-05-13T10:47:37.800Z,101105.03
2023-05-13T10:50:23.333Z,101094.75
2023-05-13T10:52:51.075Z,101090.16
2023-05-13T10:55:19.825Z,101104.06
2023-05-13T10:58:07.895Z,101102.25
2023-05-13T11:00:34.618Z,101091.41
2023-05-13T11:03:10.323Z,101097.72
2023-05-13T11:05:58.841Z,101101.31
2023-05-13T11:08:46.046Z,101097.41
2023-05-13T11:11:21.505Z,101097.16
2023-05-13T11:14:17.723Z,101087.34
2023-05-13T11:16:48.207Z,101081.41
2023-05-13T11:19:28.283Z,101096.63
2023-05-13T11:21:57.301Z,101080.00
2023-05-13T11:24:24.803Z,101086.69
2023-05-13T11:26:54.263Z,101085.38
2023-05-13T11:29:40.124Z,101079.91
2023-05-13T11:32:07.160Z,101083.69
2023-05-13T11:34:34.362Z,101090.09
2023-05-13T11:37:03.796Z,101087.81
2023-05-13T11:39:31.357Z,101084.63
2023-05-13T11:41:57.861Z,101096.44
2023-05-13T11:44:25.697Z,101093.84
2023-05-13T11:46:59.866Z,101092.91
2023-05-13T11:49:33.414Z,101103.44
2023-05-13T11:52:11.562Z,101086.31
2023-05-13T11:54:49.107Z,101090.72
2023-05-13T11:57:20.263Z,101087.44
2023-05-13T12:00:08.429Z,101091.47
2023-05-13T12:02:37.771Z,101096.66
2023-05-13T12:05:09.150Z,101089.97
2023-05-13T12:07:37.493Z,101094.00
2023-05-13T12:10:05.406Z,101083.66
2023-05-13T12:12:35.254Z,101102.22
2023-05-13T12:15:08.016Z,101086.75
2023-05-13T12:17:35.077Z,101093.38
2023-05-13T12:20:21.522Z,101095.31
2023-05-13T12:22:48.216Z,101098.28
2023-05-13T12:25:33.193Z,101097.13
2023-05-13T12:28:06.248Z,101087.97
2023-05-13T12:30:41.040Z,101097.41
2023-05-13T12:33:15.663Z,101113.88
2023-05-13T12:35:43.255Z,101099.66
2023-05-13T12:38:16.088Z,101114.31
2023-05-13T12:40:42.511Z,101098.44
2023-05-13T12:43:11.408Z,101100.41
2023-05-13T12:45:42.624Z,101098.72
2023-05-13T12:48:11.914Z,101098.78
2023-05-13T12:50:38.518Z,101091.78
2023-05-13T12:53:05.787Z,101100.34
2023-05-13T12:55:32.398Z,101099.38
2023-05-13T12:58:03.763Z,101100.84
2023-05-13T13:00:30.926Z,101110.09
2023-05-13T13:02:57.975Z,101108.19
2023-05-13T13:05:25.266Z,101110.63
2023-05-13T13:07:51.911Z,101112.38
2023-05-13T13:10:18.513Z,101117.91
2023-05-13T13:12:44.935Z,101117.41
2023-05-13T13:15:12.211Z,101121.44
2023-05-13T13:17:38.930Z,101114.50
2023-05-13T13:20:07.347Z,101120.06
2023-05-13T13:22:34.850Z,101113.72
2023-05-13T13:25:01.407Z,101114.22
2023-05-13T13:27:27.890Z,101117.56
2023-05-13T13:29:54.379Z,101114.84
2023-05-13T13:32:20.961Z,101116.13
2023-05-13T13:34:47.486Z,101108.41
2023-05-13T13:37:14.031Z,101104.25
2023-05-13T13:39:40.800Z,101098.78
2023-05-13T13:42:07.553Z,101091.19
2023-05-13T13:44:34.102Z,101095.31
2023-05-13T13:47:00.606Z,101090.28
2023-05-13T13:49:27.019Z,101087.66
2023-05-13T13:51:53.564Z,101087.31
2023-05-13T13:54:20.424Z,101078.06
2023-05-13T13:56:48.263Z,101079.00
2023-05-13T13:59:14.716Z,101082.00
2023-05-13T14:01:41.332Z,101082.50
2023-05-13T14:04:16.388Z,101078.78
2023-05-13T14:06:44.667Z,101079.81
2023-05-13T14:09:11.151Z,101079.09
2023-05-13T14:11:37.761Z,101075.19
2023-05-13T14:14:04.272Z,101074.50
2023-05-13T14:16:30.882Z,101073.78
2023-05-13T14:18:57.488Z,101071.59
2023-05-13T14:21:24.059Z,101071.91
2023-05-13T14:23:50.671Z,101067.41
2023-05-13T14:26:17.337Z,101079.22
2023-05-13T14:28:43.931Z,101071.03
2023-05-13T14:31:10.438Z,101064.66
2023-05-13T14:33:37.271Z,101063.38
2023-05-13T14:36:04.087Z,101074.84
2023-05-13T14:38:31.384Z,101066.44
2023-05-13T14:40:58.350Z,101074.13
2023-05-13T14:43:25.123Z,101066.09
2023-05-13T14:45:51.690Z,101068.75
2023-05-13T14:48:19.234Z,101073.97
2023-05-13T14:50:46.667Z,101066.88
2023-05-13T14:53:13.516Z,101069.22
2023-05-13T14:55:39.970Z,101067.41
2023-05-13T14:58:09.078Z,101069.13
2023-05-13T15:00:39.632Z,101077.75
2023-05-13T15:03:06.393Z,101076.31
2023-05-13T15:05:32.998Z,101074.50
2023-05-13T15:08:00.093Z,101080.84
2023-05-13T15:10:26.596Z,101107.53
2023-05-13T15:12:53.152Z,101125.59
2023-05-13T15:15:19.711Z,101118.63
2023-05-13T15:17:46.225Z,101148.34
2023-05-13T15:20:12.837Z,101134.75
2023-05-13T15:22:39.377Z,101162.06
2023-05-13T15:25:06.656Z,101153.31
2023-05-13T15:27:33.181Z,101157.22
2023-05-13T15:29:59.760Z,101149.28
2023-05-13T15:32:26.310Z,101158.72
2023-05-13T15:34:52.738Z,101158.31
2023-05-13T15:37:19.289Z,101139.19
2023-05-13T15:39:45.761Z,101126.56
2023-05-13T15:42:12.862Z,101121.50
2023-05-13T15:44:39.405Z,101120.91
2023-05-13T15:47:06.428Z,101119.75
2023-05-13T15:49:36.441Z,101111.91
2023-05-13T15:52:05.543Z,101103.94
2023-05-13T15:54:33.933Z,101105.09
2023-05-13T15:57:00.494Z,101101.25
2023-05-13T15:59:26.982Z,101096.09
2023-05-13T16:01:53.603Z,101081.91
2023-05-13T16:04:20.390Z,101081.91
2023-05-13T16:06:46.942Z,101072.19
2023-05-13T16:09:13.461Z,101076.63
2023-05-13T16:11:39.938Z,101077.75
2023-05-13T16:14:07.684Z,101064.50
2023-05-13T16:16:34.349Z,101063.69
2023-05-13T16:19:03.663Z,101064.69
2023-05-13T16:21:31.545Z,101063.97
2023-05-13T16:23:58.164Z,101061.19
2023-05-13T16:26:24.754Z,101071.09
2023-05-13T16:28:51.627Z,101074.38
2023-05-13T16:31:18.156Z,101073.00
2023-05-13T16:33:44.656Z,101073.25
2023-05-13T16:36:11.963Z,101076.78
2023-05-13T16:38:41.258Z,101081.94
2023-05-13T16:41:08.059Z,101079.97
2023-05-13T16:43:34.490Z,101073.81
2023-05-13T16:46:00.982Z,101072.09
2023-05-13T16:48:27.565Z,101064.72
2023-05-13T16:50:54.131Z,101063.97
2023-05-13T16:53:22.341Z,101058.16
2023-05-13T16:55:52.212Z,101060.16
2023-05-13T16:58:18.781Z,101057.28
2023-05-13T17:00:45.458Z,101064.34
2023-05-13T17:03:13.454Z,101059.38
2023-05-13T17:05:40.147Z,101059.38
2023-05-13T17:08:06.673Z,101050.56
2023-05-13T17:10:33.344Z,101055.72
2023-05-13T17:12:59.814Z,101061.34
2023-05-13T17:15:26.337Z,101064.66
2023-05-13T17:17:52.814Z,101073.03
2023-05-13T17:20:20.008Z,101074.19
2023-05-13T17:22:47.473Z,101078.91
2023-05-13T17:25:14.857Z,101079.31
2023-05-13T17:27:41.412Z,101085.69
2023-05-13T17:30:08.657Z,101084.53
2023-05-13T17:32:35.588Z,101086.97
2023-05-13T17:35:03.353Z,101089.59
2023-05-13T17:37:29.779Z,101095.97
2023-05-13T17:39:57.577Z,101102.06
2023-05-13T17:42:23.996Z,101110.56
2023-05-13T17:44:50.574Z,101109.53
2023-05-13T17:47:17.184Z,101102.38
2023-05-13T17:49:43.621Z,101103.22
2023-05-13T17:52:10.053Z,101105.88
2023-05-13T17:54:37.034Z,101096.38
2023-05-13T17:57:03.776Z,101091.47
2023-05-13T17:59:30.471Z,101096.22
2023-05-13T18:01:56.975Z,101086.94
2023-05-13T18:04:23.425Z,101097.75
2023-05-13T18:06:50.009Z,101099.66
2023-05-13T18:09:16.613Z,101107.91
2023-05-13T18:11:43.183Z,101100.03
2023-05-13T18:14:09.620Z,101097.44
2023-05-13T18:16:36.192Z,101096.66
2023-05-13T18:19:06.860Z,101087.88
2023-05-13T18:21:33.449Z,101080.81
2023-05-13T18:23:59.873Z,101082.59
2023-05-13T18:26:26.624Z,101080.88
2023-05-13T18:28:53.064Z,101080.94
2023-05-13T18:31:19.544Z,101081.06
2023-05-13T18:33:46.059Z,101081.00
2023-05-13T18:36:12.555Z,101074.00
2023-05-13T18:38:39.607Z,101073.22
2023-05-13T18:41:06.262Z,101076.16
2023-05-13T18:43:32.826Z,101071.94
2023-05-13T18:45:59.358Z,101084.38
2023-05-13T18:48:25.822Z,101072.13
2023-05-13T18:50:53.065Z,101076.84
2023-05-13T18:53:19.980Z,101077.03
2023-05-13T18:55:46.555Z,101074.44
2023-05-13T18:58:13.787Z,101074.66
2023-05-13T19:00:40.298Z,101073.03
2023-05-13T19:03:08.728Z,101083.38
2023-05-13T19:05:35.447Z,101083.81
2023-05-13T19:08:02.022Z,101094.78
2023-05-13T19:10:28.495Z,101096.63
2023-05-13T19:12:55.024Z,101100.13
2023-05-13T19:15:22.771Z,101092.94
2023-05-13T19:17:49.593Z,101088.44
2023-05-13T19:20:16.979Z,101089.44
2023-05-13T19:22:43.647Z,101092.19
2023-05-13T19:25:13.135Z,101092.28
2023-05-13T19:27:39.754Z,101103.34
2023-05-13T19:30:07.114Z,101098.31
2023-05-13T19:32:33.614Z,101099.41
2023-05-13T19:35:01.090Z,101110.03
2023-05-13T19:37:27.723Z,101105.03
2023-05-13T19:39:54.145Z,101100.06
2023-05-13T19:42:20.841Z,101096.69
2023-05-13T19:44:47.531Z,101105.59
2023-05-13T19:47:13.969Z,101106.75
2023-05-13T19:49:40.532Z,101101.41
2023-05-13T19:52:07.203Z,101101.41
2023-05-13T19:54:33.626Z,101108.53
2023-05-13T19:57:00.236Z,101106.00
2023-05-13T19:59:27.609Z,101103.53
2023-05-13T20:01:54.073Z,101108.06
2023-05-13T20:04:20.532Z,101098.34
2023-05-13T20:06:47.025Z,101104.69
2023-05-13T20:09:14.417Z,101110.16
2023-05-13T20:11:40.981Z,101106.78
2023-05-13T20:14:07.553Z,101101.50
2023-05-13T20:16:34.486Z,101105.09
2023-05-13T20:19:01.024Z,101112.25
2023-05-13T20:21:27.563Z,101110.66
2023-05-13T20:23:53.985Z,101108.19
2023-05-13T20:26:20.436Z,101106.63
2023-05-13T20:28:47.723Z,101106.75
2023-05-13T20:31:14.866Z,101106.91
2023-05-13T20:33:41.892Z,101107.94
2023-05-13T20:36:08.357Z,101110.66
2023-05-13T20:38:34.908Z,101114.22
2023-05-13T20:41:01.369Z,101102.88
2023-05-13T20:43:27.866Z,101104.69
2023-05-13T20:45:54.479Z,101106.59
2023-05-13T20:48:21.276Z,101113.84
2023-05-13T20:50:47.750Z,101109.91
2023-05-13T20:53:14.385Z,101110.09
2023-05-13T20:55:40.832Z,101116.28
2023-05-13T20:58:07.227Z,101112.09
2023-05-13T21:00:33.712Z,101109.75
2023-05-13T21:03:00.413Z,101114.19
2023-05-13T21:05:27.026Z,101109.94
2023-05-13T21:07:54.026Z,101115.34
2023-05-13T21:10:20.643Z,101113.72
2023-05-13T21:12:48.028Z,101106.63
2023-05-13T21:15:14.921Z,101110.19
2023-05-13T21:17:41.401Z,101106.00
2023-05-13T21:20:08.927Z,101108.84
2023-05-13T21:22:35.404Z,101109.72
2023-05-13T21:25:01.885Z,101106.97
2023-05-13T21:27:28.334Z,101112.31
2023-05-13T21:29:54.788Z,101108.84
2023-05-13T21:32:21.266Z,101112.38
2023-05-13T21:34:47.749Z,101114.19
2023-05-13T21:37:14.451Z,101117.00
2023-05-13T21:39:41.370Z,101119.38
2023-05-13T21:42:08.017Z,101122.72
2023-05-13T21:44:34.533Z,101120.03
2023-05-13T21:47:00.975Z,101120.03
2023-05-13T21:49:27.430Z,101112.44
2023-05-13T21:51:53.909Z,101113.63
2023-05-13T21:54:20.389Z,101119.03
2023-05-13T21:56:46.946Z,101113.00
2023-05-13T21:59:13.364Z,101107.75
2023-05-13T22:01:39.811Z,101113.88
2023-05-13T22:04:06.490Z,101110.31
2023-05-13T22:06:33.541Z,101117.34
2023-05-13T22:09:01.160Z,101120.97
2023-05-13T22:11:27.854Z,101114.09
2023-05-13T22:13:54.361Z,101113.41
2023-05-13T22:16:20.947Z,101117.53
2023-05-13T22:18:48.859Z,101099.84
2023-05-13T22:21:15.594Z,101104.06
2023-05-13T22:23:42.110Z,101101.56
2023-05-13T22:26:08.534Z,101107.75
2023-05-13T22:28:34.999Z,101106.09
2023-05-13T22:31:01.493Z,101102.47
2023-05-13T22:33:27.925Z,101105.88
2023-05-13T22:35:54.639Z,101106.66
2023-05-13T22:38:21.154Z,101099.63
2023-05-13T22:40:47.585Z,101096.94
2023-05-13T22:43:14.073Z,101094.31
2023-05-13T22:45:40.603Z,101101.41
2023-05-13T22:48:07.872Z,101097.69
2023-05-13T22:50:34.399Z,101098.00
2023-05-13T22:53:01.020Z,101098.19
2023-05-13T22:55:27.495Z,101092.97
2023-05-13T22:57:53.914Z,101088.66
2023-05-13T23:00:20.458Z,101085.28
2023-05-13T23:02:47.042Z,101087.13
2023-05-13T23:05:13.700Z,101080.25
2023-05-13T23:07:40.231Z,101075.91
2023-05-13T23:10:07.427Z,101080.34
2023-05-13T23:12:34.161Z,101089.06
2023-05-13T23:15:00.859Z,101085.50
2023-05-13T23:17:27.513Z,101082.13
2023-05-13T23:19:57.000Z,101084.75
2023-05-13T23:22:23.733Z,101082.91
2023-05-13T23:24:50.465Z,101084.22
2023-05-13T23:27:17.208Z,101079.94
2023-05-13T23:29:43.849Z,101078.13
2023-05-13T23:32:10.823Z,101078.22
2023-05-13T23:34:37.802Z,101069.69
2023-05-13T23:37:07.299Z,101077.78
2023-05-13T23:39:33.867Z,101069.19
2023-05-13T23:42:00.537Z,101077.97
2023-05-13T23:44:27.166Z,101083.19
2023-05-13T23:46:53.806Z,101062.97
2023-05-13T23:49:20.557Z,101065.56
2023-05-13T23:51:47.224Z,101078.78
2023-05-13T23:54:13.777Z,101081.41
2023-05-13T23:56:40.402Z,101078.63
2023-05-13T23:59:08.454Z,101094.38
